sensor_id;sensor_type;location;lat;lon;timestamp;temperature;humidity
23405;DHT22;11875;49.356;2.718;2024-03-07T00:00:45;6.80;99.90
23405;DHT22;11875;49.356;2.718;2024-03-07T00:03:11;6.80;99.90
23405;DHT22;11875;49.356;2.718;2024-03-07T00:05:36;6.70;99.90
23405;DHT22;11875;49.356;2.718;2024-03-07T00:08:02;6.80;99.90
23405;DHT22;11875;49.356;2.718;2024-03-07T00:10:29;6.80;99.90
23405;DHT22;11875;49.356;2.718;2024-03-07T00:12:54;6.90;99.90
23405;DHT22;11875;49.356;2.718;2024-03-07T00:15:20;6.90;99.90
23405;DHT22;11875;49.356;2.718;2024-03-07T00:17:46;6.90;99.90
23405;DHT22;11875;49.356;2.718;2024-03-07T00:20:12;6.80;99.90
23405;DHT22;11875;49.356;2.718;2024-03-07T00:22:41;6.80;99.90
23405;DHT22;11875;49.356;2.718;2024-03-07T00:25:07;6.90;99.90
23405;DHT22;11875;49.356;2.718;2024-03-07T00:27:37;6.80;99.90
23405;DHT22;11875;49.356;2.718;2024-03-07T00:30:05;6.80;99.90
23405;DHT22;11875;49.356;2.718;2024-03-07T00:32:31;6.80;99.90
23405;DHT22;11875;49.356;2.718;2024-03-07T00:35:01;6.80;99.90
23405;DHT22;11875;49.356;2.718;2024-03-07T00:37:29;6.90;99.90
23405;DHT22;11875;49.356;2.718;2024-03-07T00:39:56;6.90;99.90
23405;DHT22;11875;49.356;2.718;2024-03-07T00:42:21;6.90;99.90
23405;DHT22;11875;49.356;2.718;2024-03-07T00:44:47;6.90;99.90
23405;DHT22;11875;49.356;2.718;2024-03-07T00:47:15;6.90;99.90
23405;DHT22;11875;49.356;2.718;2024-03-07T00:49:43;6.90;99.90
23405;DHT22;11875;49.356;2.718;2024-03-07T00:52:09;6.80;99.90
23405;DHT22;11875;49.356;2.718;2024-03-07T00:54:35;6.80;99.90
23405;DHT22;11875;49.356;2.718;2024-03-07T00:57:01;6.80;99.90
23405;DHT22;11875;49.356;2.718;2024-03-07T00:59:26;6.80;99.90
23405;DHT22;11875;49.356;2.718;2024-03-07T01:01:52;6.70;99.90
23405;DHT22;11875;49.356;2.718;2024-03-07T01:04:18;8.00;99.90
23405;DHT22;11875;49.356;2.718;2024-03-07T01:06:44;6.60;99.90
23405;DHT22;11875;49.356;2.718;2024-03-07T01:09:10;6.50;99.90
23405;DHT22;11875;49.356;2.718;2024-03-07T01:11:41;6.50;99.90
23405;DHT22;11875;49.356;2.718;2024-03-07T01:14:07;6.60;99.90
23405;DHT22;11875;49.356;2.718;2024-03-07T01:16:33;6.60;99.90
23405;DHT22;11875;49.356;2.718;2024-03-07T01:19:00;6.60;99.90
23405;DHT22;11875;49.356;2.718;2024-03-07T01:21:25;6.50;99.90
23405;DHT22;11875;49.356;2.718;2024-03-07T01:23:51;6.70;99.90
23405;DHT22;11875;49.356;2.718;2024-03-07T01:26:17;6.60;99.90
23405;DHT22;11875;49.356;2.718;2024-03-07T01:28:43;6.50;99.90
23405;DHT22;11875;49.356;2.718;2024-03-07T01:31:08;6.50;99.90
23405;DHT22;11875;49.356;2.718;2024-03-07T01:33:35;6.50;99.90
23405;DHT22;11875;49.356;2.718;2024-03-07T01:36:01;6.50;99.90
23405;DHT22;11875;49.356;2.718;2024-03-07T01:38:26;6.50;99.90
23405;DHT22;11875;49.356;2.718;2024-03-07T01:40:52;6.40;99.90
23405;DHT22;11875;49.356;2.718;2024-03-07T01:43:17;6.40;99.90
23405;DHT22;11875;49.356;2.718;2024-03-07T01:45:44;6.40;99.90
23405;DHT22;11875;49.356;2.718;2024-03-07T01:48:11;6.40;99.90
23405;DHT22;11875;49.356;2.718;2024-03-07T01:50:38;6.40;99.90
23405;DHT22;11875;49.356;2.718;2024-03-07T01:53:05;6.40;99.90
23405;DHT22;11875;49.356;2.718;2024-03-07T01:55:32;6.40;99.90
23405;DHT22;11875;49.356;2.718;2024-03-07T01:57:59;6.40;99.90
23405;DHT22;11875;49.356;2.718;2024-03-07T02:00:27;6.30;99.90
23405;DHT22;11875;49.356;2.718;2024-03-07T02:02:53;6.30;99.90
23405;DHT22;11875;49.356;2.718;2024-03-07T02:05:20;6.20;99.90
23405;DHT22;11875;49.356;2.718;2024-03-07T02:07:45;6.20;99.90
23405;DHT22;11875;49.356;2.718;2024-03-07T02:10:11;6.20;99.90
23405;DHT22;11875;49.356;2.718;2024-03-07T02:12:37;6.30;99.90
23405;DHT22;11875;49.356;2.718;2024-03-07T02:15:03;6.30;99.90
23405;DHT22;11875;49.356;2.718;2024-03-07T02:17:29;6.40;99.90
23405;DHT22;11875;49.356;2.718;2024-03-07T02:19:55;6.40;99.90
23405;DHT22;11875;49.356;2.718;2024-03-07T02:22:20;6.30;99.90
23405;DHT22;11875;49.356;2.718;2024-03-07T02:24:46;6.40;99.90
23405;DHT22;11875;49.356;2.718;2024-03-07T02:27:13;6.30;99.90
23405;DHT22;11875;49.356;2.718;2024-03-07T02:29:42;6.20;99.90
23405;DHT22;11875;49.356;2.718;2024-03-07T02:32:08;6.20;99.90
23405;DHT22;11875;49.356;2.718;2024-03-07T02:34:35;6.10;99.90
23405;DHT22;11875;49.356;2.718;2024-03-07T02:37:01;6.00;99.90
23405;DHT22;11875;49.356;2.718;2024-03-07T02:39:27;6.00;99.90
23405;DHT22;11875;49.356;2.718;2024-03-07T02:41:52;6.00;99.90
23405;DHT22;11875;49.356;2.718;2024-03-07T02:44:18;5.90;99.90
23405;DHT22;11875;49.356;2.718;2024-03-07T02:46:45;5.90;99.90
23405;DHT22;11875;49.356;2.718;2024-03-07T02:49:10;5.90;99.90
23405;DHT22;11875;49.356;2.718;2024-03-07T02:51:36;5.80;99.90
23405;DHT22;11875;49.356;2.718;2024-03-07T02:54:02;5.80;99.90
23405;DHT22;11875;49.356;2.718;2024-03-07T02:56:31;5.80;99.90
23405;DHT22;11875;49.356;2.718;2024-03-07T02:58:57;5.80;99.90
23405;DHT22;11875;49.356;2.718;2024-03-07T03:01:22;5.80;99.90
23405;DHT22;11875;49.356;2.718;2024-03-07T03:03:48;5.70;99.90
23405;DHT22;11875;49.356;2.718;2024-03-07T03:06:13;5.80;99.90
23405;DHT22;11875;49.356;2.718;2024-03-07T03:08:39;5.90;99.90
23405;DHT22;11875;49.356;2.718;2024-03-07T03:11:04;6.00;99.90
23405;DHT22;11875;49.356;2.718;2024-03-07T03:13:30;6.10;99.90
23405;DHT22;11875;49.356;2.718;2024-03-07T03:15:56;6.10;99.90
23405;DHT22;11875;49.356;2.718;2024-03-07T03:18:22;6.10;99.90
23405;DHT22;11875;49.356;2.718;2024-03-07T03:20:49;6.00;99.90
23405;DHT22;11875;49.356;2.718;2024-03-07T03:23:14;6.00;99.90
23405;DHT22;11875;49.356;2.718;2024-03-07T03:25:41;6.00;99.90
23405;DHT22;11875;49.356;2.718;2024-03-07T03:28:07;6.00;99.90
23405;DHT22;11875;49.356;2.718;2024-03-07T03:30:37;5.90;99.90
23405;DHT22;11875;49.356;2.718;2024-03-07T03:33:02;5.90;99.90
23405;DHT22;11875;49.356;2.718;2024-03-07T03:35:28;5.90;99.90
23405;DHT22;11875;49.356;2.718;2024-03-07T03:37:54;6.00;99.90
23405;DHT22;11875;49.356;2.718;2024-03-07T03:40:19;6.00;99.90
23405;DHT22;11875;49.356;2.718;2024-03-07T03:42:45;6.00;99.90
23405;DHT22;11875;49.356;2.718;2024-03-07T03:45:11;6.00;99.90
23405;DHT22;11875;49.356;2.718;2024-03-07T03:47:41;6.10;99.90
23405;DHT22;11875;49.356;2.718;2024-03-07T03:50:09;6.10;99.90
23405;DHT22;11875;49.356;2.718;2024-03-07T03:52:35;6.10;99.90
23405;DHT22;11875;49.356;2.718;2024-03-07T03:55:01;6.00;99.90
23405;DHT22;11875;49.356;2.718;2024-03-07T03:57:28;6.00;99.90
23405;DHT22;11875;49.356;2.718;2024-03-07T03:59:55;5.90;99.90
23405;DHT22;11875;49.356;2.718;2024-03-07T04:02:24;5.90;99.90
23405;DHT22;11875;49.356;2.718;2024-03-07T04:04:51;5.80;99.90
23405;DHT22;11875;49.356;2.718;2024-03-07T04:07:19;5.80;99.90
23405;DHT22;11875;49.356;2.718;2024-03-07T04:09:45;5.80;99.90
23405;DHT22;11875;49.356;2.718;2024-03-07T04:12:12;5.70;99.90
23405;DHT22;11875;49.356;2.718;2024-03-07T04:14:41;5.60;99.90
23405;DHT22;11875;49.356;2.718;2024-03-07T04:17:08;5.70;99.90
23405;DHT22;11875;49.356;2.718;2024-03-07T04:19:41;5.70;99.90
23405;DHT22;11875;49.356;2.718;2024-03-07T04:22:08;5.60;99.90
23405;DHT22;11875;49.356;2.718;2024-03-07T04:24:36;5.60;99.90
23405;DHT22;11875;49.356;2.718;2024-03-07T04:27:03;5.60;99.90
23405;DHT22;11875;49.356;2.718;2024-03-07T04:29:30;5.60;99.90
23405;DHT22;11875;49.356;2.718;2024-03-07T04:31:56;5.50;99.90
23405;DHT22;11875;49.356;2.718;2024-03-07T04:34:21;5.50;99.90
23405;DHT22;11875;49.356;2.718;2024-03-07T04:36:47;5.40;99.90
23405;DHT22;11875;49.356;2.718;2024-03-07T04:39:13;5.40;99.90
23405;DHT22;11875;49.356;2.718;2024-03-07T04:41:53;5.30;99.90
23405;DHT22;11875;49.356;2.718;2024-03-07T04:44:19;5.30;99.90
23405;DHT22;11875;49.356;2.718;2024-03-07T04:46:51;5.40;99.90
23405;DHT22;11875;49.356;2.718;2024-03-07T04:49:21;5.30;99.90
23405;DHT22;11875;49.356;2.718;2024-03-07T04:51:49;5.20;99.90
23405;DHT22;11875;49.356;2.718;2024-03-07T04:54:14;5.10;99.90
23405;DHT22;11875;49.356;2.718;2024-03-07T04:56:40;4.90;99.90
23405;DHT22;11875;49.356;2.718;2024-03-07T04:59:06;4.80;99.90
23405;DHT22;11875;49.356;2.718;2024-03-07T05:01:32;4.90;99.90
23405;DHT22;11875;49.356;2.718;2024-03-07T05:03:57;4.90;99.90
23405;DHT22;11875;49.356;2.718;2024-03-07T05:06:23;5.00;99.90
23405;DHT22;11875;49.356;2.718;2024-03-07T05:08:48;5.10;99.90
23405;DHT22;11875;49.356;2.718;2024-03-07T05:11:14;5.20;99.90
23405;DHT22;11875;49.356;2.718;2024-03-07T05:13:40;5.20;99.90
23405;DHT22;11875;49.356;2.718;2024-03-07T05:16:08;5.30;99.90
23405;DHT22;11875;49.356;2.718;2024-03-07T05:18:33;5.30;99.90
23405;DHT22;11875;49.356;2.718;2024-03-07T05:20:59;5.40;99.90
23405;DHT22;11875;49.356;2.718;2024-03-07T05:23:44;5.40;99.90
23405;DHT22;11875;49.356;2.718;2024-03-07T05:26:10;5.40;99.90
23405;DHT22;11875;49.356;2.718;2024-03-07T05:28:36;5.50;99.90
23405;DHT22;11875;49.356;2.718;2024-03-07T05:31:02;5.60;99.90
23405;DHT22;11875;49.356;2.718;2024-03-07T05:33:29;5.60;99.90
23405;DHT22;11875;49.356;2.718;2024-03-07T05:35:55;5.60;99.90
23405;DHT22;11875;49.356;2.718;2024-03-07T05:38:39;5.60;99.90
23405;DHT22;11875;49.356;2.718;2024-03-07T05:41:04;5.50;99.90
23405;DHT22;11875;49.356;2.718;2024-03-07T05:43:30;5.50;99.90
23405;DHT22;11875;49.356;2.718;2024-03-07T05:45:57;5.40;99.90
23405;DHT22;11875;49.356;2.718;2024-03-07T05:48:26;5.50;99.90
23405;DHT22;11875;49.356;2.718;2024-03-07T05:50:51;5.50;99.90
23405;DHT22;11875;49.356;2.718;2024-03-07T05:53:18;5.40;99.90
23405;DHT22;11875;49.356;2.718;2024-03-07T05:55:43;5.40;99.90
23405;DHT22;11875;49.356;2.718;2024-03-07T05:58:09;5.40;99.90
23405;DHT22;11875;49.356;2.718;2024-03-07T06:00:35;5.40;99.90
23405;DHT22;11875;49.356;2.718;2024-03-07T06:03:04;5.50;99.90
23405;DHT22;11875;49.356;2.718;2024-03-07T06:05:30;5.50;99.90
23405;DHT22;11875;49.356;2.718;2024-03-07T06:07:56;5.40;99.90
23405;DHT22;11875;49.356;2.718;2024-03-07T06:10:22;5.40;99.90
23405;DHT22;11875;49.356;2.718;2024-03-07T06:12:52;5.50;99.90
23405;DHT22;11875;49.356;2.718;2024-03-07T06:15:18;5.60;99.90
23405;DHT22;11875;49.356;2.718;2024-03-07T06:17:43;5.60;99.90
23405;DHT22;11875;49.356;2.718;2024-03-07T06:20:12;5.50;99.90
23405;DHT22;11875;49.356;2.718;2024-03-07T06:22:48;5.50;99.90
23405;DHT22;11875;49.356;2.718;2024-03-07T06:25:16;5.40;99.90
23405;DHT22;11875;49.356;2.718;2024-03-07T06:27:46;5.40;99.90
23405;DHT22;11875;49.356;2.718;2024-03-07T06:30:15;6.60;99.90
23405;DHT22;11875;49.356;2.718;2024-03-07T06:32:44;5.00;99.90
23405;DHT22;11875;49.356;2.718;2024-03-07T06:35:10;4.90;99.90
23405;DHT22;11875;49.356;2.718;2024-03-07T06:37:35;5.00;99.90
23405;DHT22;11875;49.356;2.718;2024-03-07T06:40:01;5.10;99.90
23405;DHT22;11875;49.356;2.718;2024-03-07T06:42:31;5.10;99.90
23405;DHT22;11875;49.356;2.718;2024-03-07T06:44:58;5.20;99.90
23405;DHT22;11875;49.356;2.718;2024-03-07T06:47:24;5.20;99.90
23405;DHT22;11875;49.356;2.718;2024-03-07T06:49:50;5.20;99.90
23405;DHT22;11875;49.356;2.718;2024-03-07T06:52:18;5.30;99.90
23405;DHT22;11875;49.356;2.718;2024-03-07T06:54:43;5.30;99.90
23405;DHT22;11875;49.356;2.718;2024-03-07T06:57:09;5.30;99.90
23405;DHT22;11875;49.356;2.718;2024-03-07T06:59:35;5.40;99.90
23405;DHT22;11875;49.356;2.718;2024-03-07T07:02:02;5.50;99.90
23405;DHT22;11875;49.356;2.718;2024-03-07T07:04:29;5.50;99.90
23405;DHT22;11875;49.356;2.718;2024-03-07T07:07:07;5.60;99.90
23405;DHT22;11875;49.356;2.718;2024-03-07T07:09:36;5.60;99.90
23405;DHT22;11875;49.356;2.718;2024-03-07T07:12:02;5.80;99.90
23405;DHT22;11875;49.356;2.718;2024-03-07T07:14:28;5.80;99.90
23405;DHT22;11875;49.356;2.718;2024-03-07T07:16:53;5.80;99.90
23405;DHT22;11875;49.356;2.718;2024-03-07T07:19:19;5.80;99.90
23405;DHT22;11875;49.356;2.718;2024-03-07T07:21:45;5.90;99.90
23405;DHT22;11875;49.356;2.718;2024-03-07T07:24:12;5.80;99.90
23405;DHT22;11875;49.356;2.718;2024-03-07T07:26:38;5.70;99.90
23405;DHT22;11875;49.356;2.718;2024-03-07T07:29:04;5.80;99.90
23405;DHT22;11875;49.356;2.718;2024-03-07T07:31:30;5.80;99.90
23405;DHT22;11875;49.356;2.718;2024-03-07T07:33:57;5.80;99.90
23405;DHT22;11875;49.356;2.718;2024-03-07T07:36:23;5.90;99.90
23405;DHT22;11875;49.356;2.718;2024-03-07T07:38:49;5.80;99.90
23405;DHT22;11875;49.356;2.718;2024-03-07T07:41:14;5.90;99.90
23405;DHT22;11875;49.356;2.718;2024-03-07T07:43:40;5.90;99.90
23405;DHT22;11875;49.356;2.718;2024-03-07T07:46:06;5.90;99.90
23405;DHT22;11875;49.356;2.718;2024-03-07T07:48:32;5.90;99.90
23405;DHT22;11875;49.356;2.718;2024-03-07T07:50:58;6.10;99.90
23405;DHT22;11875;49.356;2.718;2024-03-07T07:53:24;6.20;99.90
23405;DHT22;11875;49.356;2.718;2024-03-07T07:55:49;6.80;99.90
23405;DHT22;11875;49.356;2.718;2024-03-07T07:58:15;7.60;99.90
23405;DHT22;11875;49.356;2.718;2024-03-07T08:00:40;8.30;99.90
23405;DHT22;11875;49.356;2.718;2024-03-07T08:03:09;9.10;99.90
23405;DHT22;11875;49.356;2.718;2024-03-07T08:05:37;9.50;99.90
23405;DHT22;11875;49.356;2.718;2024-03-07T08:08:07;10.60;99.90
23405;DHT22;11875;49.356;2.718;2024-03-07T08:10:34;11.40;99.90
23405;DHT22;11875;49.356;2.718;2024-03-07T08:13:01;10.40;99.90
23405;DHT22;11875;49.356;2.718;2024-03-07T08:15:29;10.60;99.90
23405;DHT22;11875;49.356;2.718;2024-03-07T08:17:56;10.80;99.90
23405;DHT22;11875;49.356;2.718;2024-03-07T08:20:22;10.90;99.90
23405;DHT22;11875;49.356;2.718;2024-03-07T08:22:49;11.00;99.90
23405;DHT22;11875;49.356;2.718;2024-03-07T08:25:22;11.00;99.90
23405;DHT22;11875;49.356;2.718;2024-03-07T08:27:56;11.10;99.90
23405;DHT22;11875;49.356;2.718;2024-03-07T08:30:22;11.20;99.90
23405;DHT22;11875;49.356;2.718;2024-03-07T08:32:55;11.20;99.90
23405;DHT22;11875;49.356;2.718;2024-03-07T08:35:22;11.20;99.90
23405;DHT22;11875;49.356;2.718;2024-03-07T08:37:49;11.10;99.90
23405;DHT22;11875;49.356;2.718;2024-03-07T08:40:18;11.10;99.90
23405;DHT22;11875;49.356;2.718;2024-03-07T08:42:46;11.20;99.90
23405;DHT22;11875;49.356;2.718;2024-03-07T08:45:13;11.10;99.90
23405;DHT22;11875;49.356;2.718;2024-03-07T08:47:43;11.10;99.90
23405;DHT22;11875;49.356;2.718;2024-03-07T08:50:09;11.20;99.90
23405;DHT22;11875;49.356;2.718;2024-03-07T08:52:38;11.10;99.90
23405;DHT22;11875;49.356;2.718;2024-03-07T08:55:06;10.90;99.90
23405;DHT22;11875;49.356;2.718;2024-03-07T08:57:34;10.80;99.90
23405;DHT22;11875;49.356;2.718;2024-03-07T09:00:00;10.70;99.90
23405;DHT22;11875;49.356;2.718;2024-03-07T09:02:26;10.40;99.90
23405;DHT22;11875;49.356;2.718;2024-03-07T09:04:52;10.30;99.90
23405;DHT22;11875;49.356;2.718;2024-03-07T09:07:18;10.30;99.90
23405;DHT22;11875;49.356;2.718;2024-03-07T09:09:44;10.30;99.90
23405;DHT22;11875;49.356;2.718;2024-03-07T09:12:11;10.50;99.90
23405;DHT22;11875;49.356;2.718;2024-03-07T09:14:37;10.50;99.90
23405;DHT22;11875;49.356;2.718;2024-03-07T09:17:03;10.50;99.90
23405;DHT22;11875;49.356;2.718;2024-03-07T09:19:33;10.70;99.90
23405;DHT22;11875;49.356;2.718;2024-03-07T09:21:58;10.90;99.90
23405;DHT22;11875;49.356;2.718;2024-03-07T09:24:25;11.00;99.90
23405;DHT22;11875;49.356;2.718;2024-03-07T09:26:51;11.00;99.90
23405;DHT22;11875;49.356;2.718;2024-03-07T09:29:19;11.40;99.90
23405;DHT22;11875;49.356;2.718;2024-03-07T09:31:45;11.00;99.90
23405;DHT22;11875;49.356;2.718;2024-03-07T09:34:12;11.20;99.90
23405;DHT22;11875;49.356;2.718;2024-03-07T09:36:39;11.40;99.90
23405;DHT22;11875;49.356;2.718;2024-03-07T09:39:07;11.30;99.90
23405;DHT22;11875;49.356;2.718;2024-03-07T09:41:33;11.40;99.90
23405;DHT22;11875;49.356;2.718;2024-03-07T09:44:00;11.50;99.90
23405;DHT22;11875;49.356;2.718;2024-03-07T09:46:26;11.40;99.90
23405;DHT22;11875;49.356;2.718;2024-03-07T09:48:52;11.40;99.90
23405;DHT22;11875;49.356;2.718;2024-03-07T09:51:20;11.50;99.90
23405;DHT22;11875;49.356;2.718;2024-03-07T09:53:51;11.50;99.90
23405;DHT22;11875;49.356;2.718;2024-03-07T09:56:20;11.50;99.90
23405;DHT22;11875;49.356;2.718;2024-03-07T09:58:50;11.60;99.90
23405;DHT22;11875;49.356;2.718;2024-03-07T10:01:25;11.40;99.90
23405;DHT22;11875;49.356;2.718;2024-03-07T10:03:59;11.50;99.90
23405;DHT22;11875;49.356;2.718;2024-03-07T10:06:35;11.60;99.90
23405;DHT22;11875;49.356;2.718;2024-03-07T10:09:01;11.50;99.90
23405;DHT22;11875;49.356;2.718;2024-03-07T10:11:26;11.50;99.90
23405;DHT22;11875;49.356;2.718;2024-03-07T10:13:53;11.80;99.90
23405;DHT22;11875;49.356;2.718;2024-03-07T10:16:18;11.70;99.90
23405;DHT22;11875;49.356;2.718;2024-03-07T10:18:44;11.70;99.90
23405;DHT22;11875;49.356;2.718;2024-03-07T10:21:13;11.70;99.90
23405;DHT22;11875;49.356;2.718;2024-03-07T10:23:39;11.70;99.90
23405;DHT22;11875;49.356;2.718;2024-03-07T10:26:05;11.80;99.90
23405;DHT22;11875;49.356;2.718;2024-03-07T10:28:32;12.00;99.90
23405;DHT22;11875;49.356;2.718;2024-03-07T10:30:59;12.10;99.90
23405;DHT22;11875;49.356;2.718;2024-03-07T10:33:28;12.20;99.90
23405;DHT22;11875;49.356;2.718;2024-03-07T10:35:58;12.10;99.90
23405;DHT22;11875;49.356;2.718;2024-03-07T10:38:25;12.10;99.90
23405;DHT22;11875;49.356;2.718;2024-03-07T10:40:54;12.10;99.90
23405;DHT22;11875;49.356;2.718;2024-03-07T10:43:21;12.10;99.90
23405;DHT22;11875;49.356;2.718;2024-03-07T10:45:48;12.30;99.90
23405;DHT22;11875;49.356;2.718;2024-03-07T10:48:17;12.10;99.90
23405;DHT22;11875;49.356;2.718;2024-03-07T10:50:54;12.20;99.90
23405;DHT22;11875;49.356;2.718;2024-03-07T10:53:29;12.30;99.90
23405;DHT22;11875;49.356;2.718;2024-03-07T10:59:06;12.40;99.90
23405;DHT22;11875;49.356;2.718;2024-03-07T11:01:34;12.50;99.90
23405;DHT22;11875;49.356;2.718;2024-03-07T11:04:00;12.40;99.90
23405;DHT22;11875;49.356;2.718;2024-03-07T11:06:31;12.50;99.90
23405;DHT22;11875;49.356;2.718;2024-03-07T11:09:00;12.50;99.90
23405;DHT22;11875;49.356;2.718;2024-03-07T11:11:26;12.50;99.90
23405;DHT22;11875;49.356;2.718;2024-03-07T11:13:54;12.70;99.90
23405;DHT22;11875;49.356;2.718;2024-03-07T11:16:22;12.70;99.90
23405;DHT22;11875;49.356;2.718;2024-03-07T11:22:02;12.90;99.90
23405;DHT22;11875;49.356;2.718;2024-03-07T11:24:39;13.20;99.90
23405;DHT22;11875;49.356;2.718;2024-03-07T11:27:05;13.20;99.90
23405;DHT22;11875;49.356;2.718;2024-03-07T11:29:41;13.20;99.90
23405;DHT22;11875;49.356;2.718;2024-03-07T11:32:14;13.30;99.90
23405;DHT22;11875;49.356;2.718;2024-03-07T11:34:44;13.10;99.90
23405;DHT22;11875;49.356;2.718;2024-03-07T11:37:20;13.10;99.90
23405;DHT22;11875;49.356;2.718;2024-03-07T11:39:49;13.30;99.90
23405;DHT22;11875;49.356;2.718;2024-03-07T11:42:29;13.50;99.90
23405;DHT22;11875;49.356;2.718;2024-03-07T11:44:59;13.70;99.90
23405;DHT22;11875;49.356;2.718;2024-03-07T11:47:26;13.80;99.90
23405;DHT22;11875;49.356;2.718;2024-03-07T11:49:55;13.60;99.90
23405;DHT22;11875;49.356;2.718;2024-03-07T11:52:23;13.50;99.90
23405;DHT22;11875;49.356;2.718;2024-03-07T11:54:49;13.50;99.90
23405;DHT22;11875;49.356;2.718;2024-03-07T11:57:17;13.60;99.90
23405;DHT22;11875;49.356;2.718;2024-03-07T11:59:45;13.70;99.90
23405;DHT22;11875;49.356;2.718;2024-03-07T12:02:15;13.70;99.90
23405;DHT22;11875;49.356;2.718;2024-03-07T12:04:41;13.80;99.90
23405;DHT22;11875;49.356;2.718;2024-03-07T12:07:07;13.70;99.90
23405;DHT22;11875;49.356;2.718;2024-03-07T12:09:36;13.80;99.90
23405;DHT22;11875;49.356;2.718;2024-03-07T12:12:06;13.70;99.90
23405;DHT22;11875;49.356;2.718;2024-03-07T12:14:32;13.80;99.90
23405;DHT22;11875;49.356;2.718;2024-03-07T12:17:00;13.80;99.90
23405;DHT22;11875;49.356;2.718;2024-03-07T12:19:26;13.60;99.90
23405;DHT22;11875;49.356;2.718;2024-03-07T12:21:56;13.60;99.90
23405;DHT22;11875;49.356;2.718;2024-03-07T12:24:22;13.60;99.90
23405;DHT22;11875;49.356;2.718;2024-03-07T12:26:47;13.70;99.90
23405;DHT22;11875;49.356;2.718;2024-03-07T12:29:13;13.60;99.90
23405;DHT22;11875;49.356;2.718;2024-03-07T12:31:39;13.50;99.90
23405;DHT22;11875;49.356;2.718;2024-03-07T12:34:05;13.60;99.90
23405;DHT22;11875;49.356;2.718;2024-03-07T12:36:35;13.60;99.90
23405;DHT22;11875;49.356;2.718;2024-03-07T12:39:34;13.60;99.90
23405;DHT22;11875;49.356;2.718;2024-03-07T12:42:12;13.90;99.90
23405;DHT22;11875;49.356;2.718;2024-03-07T12:44:43;13.70;99.90
23405;DHT22;11875;49.356;2.718;2024-03-07T12:47:12;13.60;99.90
23405;DHT22;11875;49.356;2.718;2024-03-07T12:49:42;13.50;99.90
23405;DHT22;11875;49.356;2.718;2024-03-07T12:52:08;13.50;99.90
23405;DHT22;11875;49.356;2.718;2024-03-07T12:54:35;13.50;99.90
23405;DHT22;11875;49.356;2.718;2024-03-07T12:57:09;13.50;99.90
23405;DHT22;11875;49.356;2.718;2024-03-07T12:59:37;13.70;99.90
23405;DHT22;11875;49.356;2.718;2024-03-07T13:02:04;13.80;99.90
23405;DHT22;11875;49.356;2.718;2024-03-07T13:04:32;13.80;99.90
23405;DHT22;11875;49.356;2.718;2024-03-07T13:06:57;13.70;99.90
23405;DHT22;11875;49.356;2.718;2024-03-07T13:09:25;13.60;99.90
23405;DHT22;11875;49.356;2.718;2024-03-07T13:11:57;13.60;99.90
23405;DHT22;11875;49.356;2.718;2024-03-07T13:14:23;13.70;99.90
23405;DHT22;11875;49.356;2.718;2024-03-07T13:16:48;13.90;99.90
23405;DHT22;11875;49.356;2.718;2024-03-07T13:19:15;14.00;99.90
23405;DHT22;11875;49.356;2.718;2024-03-07T13:21:46;14.10;99.90
23405;DHT22;11875;49.356;2.718;2024-03-07T13:24:13;14.30;99.90
23405;DHT22;11875;49.356;2.718;2024-03-07T13:26:39;14.50;99.90
23405;DHT22;11875;49.356;2.718;2024-03-07T13:29:05;14.60;99.90
23405;DHT22;11875;49.356;2.718;2024-03-07T13:31:30;14.60;99.90
23405;DHT22;11875;49.356;2.718;2024-03-07T13:33:56;14.50;99.90
23405;DHT22;11875;49.356;2.718;2024-03-07T13:36:22;14.20;99.90
23405;DHT22;11875;49.356;2.718;2024-03-07T13:38:52;14.30;99.90
23405;DHT22;11875;49.356;2.718;2024-03-07T13:41:21;14.40;99.90
23405;DHT22;11875;49.356;2.718;2024-03-07T13:43:47;14.40;99.90
23405;DHT22;11875;49.356;2.718;2024-03-07T13:46:14;14.50;99.90
23405;DHT22;11875;49.356;2.718;2024-03-07T13:48:44;14.30;99.90
23405;DHT22;11875;49.356;2.718;2024-03-07T13:51:10;14.30;99.90
23405;DHT22;11875;49.356;2.718;2024-03-07T13:53:40;14.00;99.90
23405;DHT22;11875;49.356;2.718;2024-03-07T13:56:53;14.00;99.90
23405;DHT22;11875;49.356;2.718;2024-03-07T13:59:36;14.40;99.90
23405;DHT22;11875;49.356;2.718;2024-03-07T14:13:44;14.30;99.90
23405;DHT22;11875;49.356;2.718;2024-03-07T14:16:21;14.40;99.90
23405;DHT22;11875;49.356;2.718;2024-03-07T14:32:12;14.10;99.90
23405;DHT22;11875;49.356;2.718;2024-03-07T14:34:54;14.30;99.90
23405;DHT22;11875;49.356;2.718;2024-03-07T14:40:12;14.20;99.90
23405;DHT22;11875;49.356;2.718;2024-03-07T14:42:49;14.20;99.90
23405;DHT22;11875;49.356;2.718;2024-03-07T14:45:39;14.20;99.90
23405;DHT22;11875;49.356;2.718;2024-03-07T14:48:06;14.20;99.90
23405;DHT22;11875;49.356;2.718;2024-03-07T14:50:36;14.30;99.90
23405;DHT22;11875;49.356;2.718;2024-03-07T14:53:03;14.10;99.90
23405;DHT22;11875;49.356;2.718;2024-03-07T14:55:30;14.20;99.90
23405;DHT22;11875;49.356;2.718;2024-03-07T14:57:57;14.30;99.90
23405;DHT22;11875;49.356;2.718;2024-03-07T15:00:22;14.20;99.90
23405;DHT22;11875;49.356;2.718;2024-03-07T15:02:55;14.00;99.90
23405;DHT22;11875;49.356;2.718;2024-03-07T15:05:24;14.10;99.90
23405;DHT22;11875;49.356;2.718;2024-03-07T15:07:53;14.30;99.90
23405;DHT22;11875;49.356;2.718;2024-03-07T15:10:31;14.60;99.90
23405;DHT22;11875;49.356;2.718;2024-03-07T15:12:57;14.70;99.90
23405;DHT22;11875;49.356;2.718;2024-03-07T15:15:23;14.70;99.90
23405;DHT22;11875;49.356;2.718;2024-03-07T15:17:50;14.70;99.90
23405;DHT22;11875;49.356;2.718;2024-03-07T15:20:16;14.50;99.90
23405;DHT22;11875;49.356;2.718;2024-03-07T15:22:53;14.70;99.90
23405;DHT22;11875;49.356;2.718;2024-03-07T15:25:23;14.80;99.90
23405;DHT22;11875;49.356;2.718;2024-03-07T15:27:53;14.70;99.90
23405;DHT22;11875;49.356;2.718;2024-03-07T15:30:22;14.60;99.90
23405;DHT22;11875;49.356;2.718;2024-03-07T15:32:50;14.50;99.90
23405;DHT22;11875;49.356;2.718;2024-03-07T15:35:16;14.50;99.90
23405;DHT22;11875;49.356;2.718;2024-03-07T15:37:46;14.80;99.90
23405;DHT22;11875;49.356;2.718;2024-03-07T15:40:14;15.10;99.90
23405;DHT22;11875;49.356;2.718;2024-03-07T15:42:44;15.10;99.90
23405;DHT22;11875;49.356;2.718;2024-03-07T15:45:20;15.00;99.90
23405;DHT22;11875;49.356;2.718;2024-03-07T15:47:49;14.80;99.90
23405;DHT22;11875;49.356;2.718;2024-03-07T15:50:15;14.80;99.90
23405;DHT22;11875;49.356;2.718;2024-03-07T15:52:44;14.70;99.90
23405;DHT22;11875;49.356;2.718;2024-03-07T15:55:10;14.70;99.90
23405;DHT22;11875;49.356;2.718;2024-03-07T15:57:49;14.50;99.90
23405;DHT22;11875;49.356;2.718;2024-03-07T16:00:16;14.60;99.90
23405;DHT22;11875;49.356;2.718;2024-03-07T16:05:26;14.20;99.90
23405;DHT22;11875;49.356;2.718;2024-03-07T16:07:54;14.10;99.90
23405;DHT22;11875;49.356;2.718;2024-03-07T16:10:26;14.00;99.90
23405;DHT22;11875;49.356;2.718;2024-03-07T16:13:05;14.10;99.90
23405;DHT22;11875;49.356;2.718;2024-03-07T16:15:33;14.10;99.90
23405;DHT22;11875;49.356;2.718;2024-03-07T16:17:59;13.90;99.90
23405;DHT22;11875;49.356;2.718;2024-03-07T16:20:25;13.70;99.90